Time;durP1;ratioP1;P1;durP2;ratioP2;P2;SDS_P1;SDS_P2;PMS_P1;PMS_P2;Temp;Humidity;BMP_temperature;BMP_pressure;BME280_temperature;BME280_humidity;BME280_pressure;Samples;Min_cycle;Max_cycle;Signal;HPM_P1;HPM_P2
2023/09/18 00:00:25;;;;;;;5.63;4.20;;;25.30;1.00;;;;;;4988078;28;20178;-76
2023/09/18 00:02:50;;;;;;;6.80;4.20;;;24.80;1.00;;;;;;4986607;28;20202;-76
2023/09/18 00:05:16;;;;;;;6.53;4.50;;;24.80;1.00;;;;;;4985316;28;21141;-77
2023/09/18 00:07:42;;;;;;;15.20;4.47;;;24.80;1.00;;;;;;4979942;28;20191;-76
2023/09/18 00:10:09;;;;;;;6.77;4.40;;;24.80;1.00;;;;;;4981958;28;20174;-76
2023/09/18 00:12:35;;;;;;;5.03;3.90;;;24.80;1.00;;;;;;4985127;28;20454;-76
2023/09/18 00:15:00;;;;;;;6.83;4.13;;;24.70;1.00;;;;;;4988881;28;21009;-75
2023/09/18 00:17:26;;;;;;;6.90;3.63;;;24.80;1.00;;;;;;4983283;28;20194;-78
2023/09/18 00:19:52;;;;;;;9.80;4.13;;;24.80;1.00;;;;;;4989993;28;20183;-75
2023/09/18 00:22:17;;;;;;;7.40;3.83;;;24.90;1.00;;;;;;4980340;28;20207;-76
2023/09/18 00:24:43;;;;;;;6.80;4.03;;;25.00;1.00;;;;;;4989674;28;20228;-77
2023/09/18 00:27:10;;;;;;;7.57;3.90;;;25.00;1.00;;;;;;4991592;28;20322;-77
2023/09/18 00:29:36;;;;;;;6.30;3.60;;;25.00;1.00;;;;;;4990257;28;20194;-74
2023/09/18 00:32:01;;;;;;;5.60;4.20;;;25.00;1.00;;;;;;4990232;28;20445;-76
2023/09/18 00:34:27;;;;;;;5.50;3.80;;;25.00;1.00;;;;;;4987357;28;20226;-76
2023/09/18 00:36:52;;;;;;;5.13;3.83;;;25.00;1.00;;;;;;4988497;28;20242;-75
2023/09/18 00:39:18;;;;;;;5.07;3.90;;;25.10;1.00;;;;;;4987993;28;20191;-75
2023/09/18 00:41:45;;;;;;;5.17;3.87;;;25.10;1.00;;;;;;4990832;28;20233;-76
2023/09/18 00:44:11;;;;;;;5.63;3.80;;;25.10;1.00;;;;;;4990264;28;20258;-75
2023/09/18 00:46:36;;;;;;;6.87;4.10;;;25.10;1.00;;;;;;4972629;28;20556;-74
2023/09/18 00:49:02;;;;;;;5.07;4.00;;;25.10;1.00;;;;;;4990268;28;20261;-76
2023/09/18 00:51:28;;;;;;;9.77;4.30;;;25.00;1.00;;;;;;4986678;28;20179;-75
2023/09/18 00:53:54;;;;;;;5.80;4.13;;;25.00;1.00;;;;;;4987061;28;20445;-75
2023/09/18 00:56:20;;;;;;;5.87;4.10;;;24.90;1.00;;;;;;4987927;28;20289;-77
2023/09/18 00:58:46;;;;;;;6.20;3.70;;;25.20;1.00;;;;;;4991797;28;20580;-74
2023/09/18 01:01:14;;;;;;;5.50;3.87;;;25.00;1.00;;;;;;4991629;28;20533;-75
2023/09/18 01:03:40;;;;;;;5.73;3.90;;;25.10;1.00;;;;;;4990983;28;20264;-76
2023/09/18 01:06:05;;;;;;;6.87;3.60;;;25.10;1.00;;;;;;4989402;28;20592;-77
2023/09/18 01:08:31;;;;;;;7.00;3.97;;;25.20;1.00;;;;;;4971640;28;20671;-75
2023/09/18 01:11:37;;;;;;;10.20;4.53;;;25.20;1.00;;;;;;4986918;28;20619;-75
2023/09/18 01:14:21;;;;;;;7.33;4.00;;;25.20;1.00;;;;;;4986232;28;20363;-75
2023/09/18 01:16:57;;;;;;;5.60;4.23;;;25.20;1.00;;;;;;4984826;28;20460;-76
2023/09/18 01:19:40;;;;;;;5.30;4.10;;;25.20;1.00;;;;;;4971233;28;20467;-75
2023/09/18 01:22:07;;;;;;;5.13;3.90;;;25.10;1.00;;;;;;4971998;28;20477;-76
2023/09/18 01:24:34;;;;;;;8.10;3.80;;;25.10;1.00;;;;;;4967906;28;20434;-74
2023/09/18 01:26:59;;;;;;;7.57;4.20;;;25.10;1.00;;;;;;4988387;28;20437;-76
2023/09/18 01:29:25;;;;;;;6.63;4.23;;;25.70;1.00;;;;;;4989405;28;20864;-73
2023/09/18 01:31:51;;;;;;;7.80;4.03;;;25.00;1.00;;;;;;4987215;28;20201;-73
2023/09/18 01:34:21;;;;;;;7.90;4.00;;;25.00;1.00;;;;;;4988451;28;20182;-76
2023/09/18 01:36:47;;;;;;;6.13;4.67;;;25.00;1.00;;;;;;4987912;28;20474;-77
2023/09/18 01:39:14;;;;;;;5.00;3.80;;;25.00;1.00;;;;;;4985685;28;20488;-75
2023/09/18 01:41:41;;;;;;;5.83;4.13;;;25.00;1.00;;;;;;4987735;28;20472;-74
2023/09/18 01:44:06;;;;;;;6.33;4.00;;;25.00;1.00;;;;;;4989211;28;20458;-74
2023/09/18 01:46:36;;;;;;;8.23;4.57;;;25.00;1.00;;;;;;4986944;28;20476;-76
2023/09/18 01:49:03;;;;;;;7.77;4.57;;;25.00;1.00;;;;;;4985491;28;20237;-75
2023/09/18 01:51:29;;;;;;;6.10;4.30;;;25.00;1.00;;;;;;4988369;28;20452;-75
2023/09/18 01:53:55;;;;;;;5.77;4.00;;;25.00;1.00;;;;;;4988251;28;20537;-75
2023/09/18 01:56:21;;;;;;;5.73;4.00;;;24.90;1.00;;;;;;4987806;28;20202;-76
2023/09/18 01:58:46;;;;;;;7.27;4.30;;;24.90;1.00;;;;;;4971482;28;20442;-75
2023/09/18 02:01:12;;;;;;;6.27;4.20;;;24.80;1.00;;;;;;4987848;28;20689;-75
2023/09/18 02:03:41;;;;;;;5.83;4.33;;;24.80;1.00;;;;;;4988614;28;20190;-73
2023/09/18 02:06:10;;;;;;;6.07;4.30;;;24.70;1.00;;;;;;4986546;28;20701;-75
2023/09/18 02:08:36;;;;;;;7.47;4.67;;;24.70;1.00;;;;;;4988949;28;20445;-74
2023/09/18 02:11:02;;;;;;;6.20;4.50;;;24.70;1.00;;;;;;4984323;28;20537;-75
2023/09/18 02:13:28;;;;;;;5.63;4.40;;;24.60;1.00;;;;;;4987034;28;20179;-77
2023/09/18 02:15:55;;;;;;;6.57;4.90;;;24.50;1.00;;;;;;4987649;28;20519;-76
2023/09/18 02:18:20;;;;;;;5.60;4.20;;;24.50;1.00;;;;;;4987694;28;20206;-75
2023/09/18 02:20:48;;;;;;;6.37;4.50;;;24.70;1.00;;;;;;4987026;28;20955;-75
2023/09/18 02:23:15;;;;;;;6.03;4.47;;;24.50;1.00;;;;;;4988921;28;20795;-76
2023/09/18 02:25:40;;;;;;;7.80;4.80;;;24.50;1.00;;;;;;4985035;28;20891;-75
2023/09/18 02:28:06;;;;;;;5.87;4.40;;;24.50;1.00;;;;;;4988756;28;20433;-75
2023/09/18 02:30:32;;;;;;;6.00;4.27;;;24.50;1.00;;;;;;4987170;28;20213;-74
2023/09/18 02:32:58;;;;;;;8.30;4.43;;;24.40;1.00;;;;;;4987396;28;21079;-75
2023/09/18 02:35:23;;;;;;;6.37;4.57;;;24.30;1.00;;;;;;4987764;28;20199;-75
2023/09/18 02:37:49;;;;;;;7.37;4.90;;;24.20;1.00;;;;;;4987514;28;20187;-75
2023/09/18 02:40:14;;;;;;;9.87;4.20;;;24.10;1.00;;;;;;4987755;28;20183;-75
2023/09/18 02:42:40;;;;;;;8.17;4.70;;;24.10;1.00;;;;;;4987774;28;20202;-74
2023/09/18 02:45:06;;;;;;;6.27;4.67;;;24.00;1.00;;;;;;4986531;28;20975;-74
2023/09/18 02:47:33;;;;;;;5.97;4.80;;;24.00;1.00;;;;;;4988339;28;20261;-74
2023/09/18 02:49:59;;;;;;;6.93;4.60;;;23.90;1.00;;;;;;4988550;28;20492;-76
2023/09/18 02:52:24;;;;;;;6.20;4.37;;;23.90;1.00;;;;;;4986898;28;20442;-72
2023/09/18 02:54:50;;;;;;;8.00;4.43;;;23.80;1.00;;;;;;4987826;28;20273;-73
2023/09/18 02:57:15;;;;;;;6.80;4.10;;;23.80;1.00;;;;;;4986830;28;20186;-73
2023/09/18 02:59:41;;;;;;;6.27;4.27;;;23.80;1.00;;;;;;4987991;28;20186;-73
2023/09/18 03:02:07;;;;;;;8.77;4.30;;;23.80;1.00;;;;;;4986907;28;20677;-73
2023/09/18 03:04:32;;;;;;;8.90;4.20;;;24.70;1.00;;;;;;4988021;28;22145;-73
2023/09/18 03:06:58;;;;;;;8.67;4.30;;;23.80;1.00;;;;;;4988598;28;20198;-74
2023/09/18 03:09:23;;;;;;;6.50;4.50;;;23.90;1.00;;;;;;4986083;28;20188;-71
2023/09/18 03:11:49;;;;;;;5.40;4.10;;;23.80;1.00;;;;;;4986006;28;20187;-72
2023/09/18 03:14:14;;;;;;;8.10;4.57;;;23.80;1.00;;;;;;4988226;28;20194;-74
2023/09/18 03:16:40;;;;;;;8.70;4.53;;;23.60;1.00;;;;;;4986305;28;20218;-74
2023/09/18 03:19:05;;;;;;;11.93;4.50;;;23.60;1.00;;;;;;4988348;28;20186;-73
2023/09/18 03:21:33;;;;;;;10.30;4.63;;;23.60;1.00;;;;;;4986952;28;20202;-71
2023/09/18 03:23:59;;;;;;;9.23;4.90;;;23.50;1.00;;;;;;4987444;28;20263;-74
2023/09/18 03:26:24;;;;;;;9.13;4.80;;;23.50;1.00;;;;;;4986445;28;20884;-74
2023/09/18 03:28:50;;;;;;;7.20;4.10;;;23.30;1.00;;;;;;4987070;28;20446;-73
2023/09/18 03:31:15;;;;;;;9.10;5.00;;;23.50;1.00;;;;;;4988243;28;20261;-74
2023/09/18 03:33:41;;;;;;;8.50;4.17;;;23.40;1.00;;;;;;4985638;28;20234;-75
2023/09/18 03:36:07;;;;;;;9.27;4.73;;;23.30;1.00;;;;;;4986447;28;20764;-73
2023/09/18 03:38:35;;;;;;;10.97;5.03;;;23.30;1.00;;;;;;4986463;28;20687;-74
2023/09/18 03:41:01;;;;;;;8.30;5.13;;;23.20;1.00;;;;;;4986644;28;20465;-74
2023/09/18 03:43:26;;;;;;;8.17;4.77;;;23.20;1.00;;;;;;4989343;28;20430;-73
2023/09/18 03:45:52;;;;;;;8.40;4.70;;;23.10;1.00;;;;;;4987424;28;20260;-73
2023/09/18 03:48:17;;;;;;;8.83;5.00;;;23.10;1.00;;;;;;4986236;28;20201;-72
2023/09/18 03:50:43;;;;;;;10.17;5.20;;;23.00;1.00;;;;;;4985758;28;20197;-73
2023/09/18 03:53:09;;;;;;;9.70;4.70;;;23.10;1.00;;;;;;4985133;28;20186;-71
2023/09/18 03:55:34;;;;;;;8.90;6.03;;;23.00;1.00;;;;;;4968555;28;20225;-74
2023/09/18 03:58:00;;;;;;;16.00;5.20;;;23.00;1.00;;;;;;4987493;28;20971;-73
2023/09/18 04:00:26;;;;;;;11.50;5.50;;;22.90;1.00;;;;;;4985766;28;20194;-72
2023/09/18 04:02:51;;;;;;;15.63;5.63;;;22.70;1.00;;;;;;4985054;28;20628;-73
2023/09/18 04:05:17;;;;;;;12.60;5.70;;;22.70;1.00;;;;;;4987132;28;20229;-73
2023/09/18 04:07:46;;;;;;;16.20;5.53;;;22.60;1.00;;;;;;4986358;28;20194;-73
2023/09/18 04:10:18;;;;;;;20.03;6.23;;;22.50;1.00;;;;;;4986919;28;20675;-72
2023/09/18 04:12:46;;;;;;;14.17;6.10;;;21.90;1.00;;;;;;4985881;28;20458;-72
2023/09/18 04:15:14;;;;;;;10.40;5.90;;;22.90;1.00;;;;;;4985483;28;20463;-72
2023/09/18 04:17:39;;;;;;;10.40;6.33;;;21.20;1.00;;;;;;4986822;28;20449;-72
2023/09/18 04:20:05;;;;;;;13.23;5.70;;;21.10;1.00;;;;;;4986836;28;20532;-74
2023/09/18 04:22:31;;;;;;;16.43;7.07;;;21.00;1.00;;;;;;4987052;28;20210;-75
2023/09/18 04:24:56;;;;;;;21.10;6.33;;;20.90;1.00;;;;;;4985159;28;20468;-70
2023/09/18 04:27:22;;;;;;;12.83;6.40;;;20.90;1.00;;;;;;4986954;28;20194;-73
2023/09/18 04:29:47;;;;;;;10.83;5.50;;;20.70;1.00;;;;;;4986156;28;20545;-75
2023/09/18 04:32:13;;;;;;;16.07;5.57;;;20.50;1.00;;;;;;4986151;28;20327;-72
2023/09/18 04:34:39;;;;;;;17.90;5.70;;;20.30;1.00;;;;;;4985771;28;20190;-72
2023/09/18 04:37:04;;;;;;;18.80;5.40;;;20.40;1.00;;;;;;4987994;28;20186;-73
2023/09/18 04:39:30;;;;;;;12.90;4.80;;;20.30;1.00;;;;;;4985046;28;20683;-73
2023/09/18 04:41:55;;;;;;;11.03;4.83;;;20.30;1.00;;;;;;4984718;28;20214;-74
2023/09/18 04:44:21;;;;;;;15.23;5.53;;;20.20;1.00;;;;;;4986288;28;20190;-73
2023/09/18 04:46:46;;;;;;;14.00;5.20;;;20.20;1.00;;;;;;4986411;28;20572;-73
2023/09/18 04:49:12;;;;;;;12.33;5.77;;;20.30;1.00;;;;;;4987134;28;20314;-74
2023/09/18 04:51:39;;;;;;;13.80;4.80;;;20.30;1.00;;;;;;4985425;28;20210;-73
2023/09/18 04:54:05;;;;;;;16.10;5.47;;;20.30;1.00;;;;;;4985322;28;20186;-72
2023/09/18 04:56:31;;;;;;;17.97;5.40;;;20.30;1.00;;;;;;4967179;28;20466;-72
2023/09/18 04:58:57;;;;;;;14.80;5.70;;;20.40;1.00;;;;;;4985358;28;20536;-72
2023/09/18 05:01:24;;;;;;;13.83;5.77;;;20.40;1.00;;;;;;4989285;28;20252;-73
2023/09/18 05:03:51;;;;;;;14.20;5.20;;;20.50;1.00;;;;;;4989092;28;20447;-74
2023/09/18 05:06:16;;;;;;;21.67;6.47;;;20.40;1.00;;;;;;4989698;28;20457;-75
2023/09/18 05:08:43;;;;;;;18.60;5.63;;;20.50;1.00;;;;;;4988565;28;20980;-75
2023/09/18 05:11:09;;;;;;;20.80;6.00;;;20.60;1.00;;;;;;4988949;28;20814;-75
2023/09/18 05:13:34;;;;;;;13.43;5.60;;;20.60;1.00;;;;;;4989564;28;20450;-73
2023/09/18 05:16:00;;;;;;;10.07;5.07;;;20.60;1.00;;;;;;4988889;28;20573;-74
2023/09/18 05:18:26;;;;;;;21.27;5.57;;;20.60;1.00;;;;;;4988655;28;20187;-76
2023/09/18 05:20:52;;;;;;;14.13;5.20;;;20.60;1.00;;;;;;4987553;28;20468;-74
2023/09/18 05:23:18;;;;;;;14.60;5.20;;;20.60;1.00;;;;;;4986236;28;20266;-74
2023/09/18 05:25:44;;;;;;;14.10;5.27;;;20.70;1.00;;;;;;4988764;28;20213;-72
2023/09/18 05:28:09;;;;;;;15.70;5.27;;;20.70;1.00;;;;;;4988845;28;20528;-73
2023/09/18 05:30:38;;;;;;;14.97;5.20;;;20.70;1.00;;;;;;4987709;28;20586;-77
2023/09/18 05:33:04;;;;;;;14.57;5.20;;;20.70;1.00;;;;;;4989712;28;20273;-75
2023/09/18 05:35:43;;;;;;;18.10;5.40;;;22.70;1.00;;;;;;4988417;28;21067;-73
2023/09/18 05:38:10;;;;;;;16.70;5.27;;;20.70;1.00;;;;;;4989173;28;20504;-74
2023/09/18 05:40:36;;;;;;;13.17;5.30;;;20.80;1.00;;;;;;4987900;28;20476;-73
2023/09/18 05:43:02;;;;;;;12.43;4.50;;;20.70;1.00;;;;;;4987550;28;20497;-74
2023/09/18 05:45:28;;;;;;;12.00;5.40;;;22.30;1.00;;;;;;4988967;28;20736;-74
2023/09/18 05:47:54;;;;;;;15.50;5.50;;;20.80;1.00;;;;;;4987476;28;20203;-74
2023/09/18 05:50:20;;;;;;;14.93;5.20;;;20.90;1.00;;;;;;4988975;28;20258;-75
2023/09/18 05:52:47;;;;;;;15.10;5.97;;;20.80;1.00;;;;;;4953389;28;20530;-73
2023/09/18 05:55:14;;;;;;;13.90;5.90;;;20.70;1.00;;;;;;4984931;28;20515;-76
2023/09/18 05:57:40;;;;;;;13.63;5.40;;;20.70;1.00;;;;;;4986958;28;20440;-74
2023/09/18 06:00:06;;;;;;;11.87;4.93;;;20.70;1.00;;;;;;4988435;28;20449;-74
2023/09/18 06:02:32;;;;;;;13.50;5.50;;;20.80;1.00;;;;;;4987916;28;20265;-74
2023/09/18 06:05:00;;;;;;;18.13;5.80;;;20.90;1.00;;;;;;4987862;28;20449;-74
2023/09/18 06:07:28;;;;;;;21.23;5.50;;;20.90;1.00;;;;;;4987875;28;20182;-74
2023/09/18 06:09:54;;;;;;;13.17;5.50;;;20.90;1.00;;;;;;4987077;28;20438;-76
2023/09/18 06:12:21;;;;;;;20.50;6.23;;;20.90;1.00;;;;;;4986777;28;21012;-73
2023/09/18 06:14:48;;;;;;;13.60;5.63;;;21.00;1.00;;;;;;4987061;28;20187;-75
2023/09/18 06:17:14;;;;;;;15.77;5.50;;;21.00;1.00;;;;;;4970009;28;20476;-74
2023/09/18 06:19:40;;;;;;;14.63;5.33;;;21.10;1.00;;;;;;4986457;28;20515;-72
2023/09/18 06:22:07;;;;;;;17.33;6.20;;;21.10;1.00;;;;;;4988303;28;20473;-75
2023/09/18 06:24:33;;;;;;;20.00;6.00;;;21.20;1.00;;;;;;4988583;28;20441;-76
2023/09/18 06:26:59;;;;;;;17.90;5.87;;;21.10;1.00;;;;;;4984585;28;20462;-74
2023/09/18 06:29:24;;;;;;;18.53;5.90;;;21.20;1.00;;;;;;4988679;28;20433;-74
2023/09/18 06:31:51;;;;;;;14.40;5.47;;;21.00;1.00;;;;;;4986952;28;20190;-74
2023/09/18 06:34:17;;;;;;;14.30;5.80;;;21.10;1.00;;;;;;4971190;28;20189;-75
2023/09/18 06:36:42;;;;;;;16.70;5.60;;;21.10;1.00;;;;;;4987252;28;20473;-75
2023/09/18 06:39:08;;;;;;;21.00;6.23;;;21.10;1.00;;;;;;4986338;28;20191;-74
2023/09/18 06:41:33;;;;;;;14.03;6.00;;;21.00;1.00;;;;;;4987516;28;20210;-76
2023/09/18 06:44:02;;;;;;;21.13;6.03;;;21.00;1.00;;;;;;4985785;28;20193;-75
2023/09/18 06:46:28;;;;;;;14.57;5.35;;;21.00;1.00;;;;;;4986285;28;20516;-78
2023/09/18 06:48:53;;;;;;;17.83;6.30;;;21.10;1.00;;;;;;4989863;28;20306;-76
2023/09/18 06:51:19;;;;;;;28.80;21.43;;;21.20;1.00;;;;;;4985912;28;20218;-74
2023/09/18 06:53:45;;;;;;;19.50;6.07;;;21.30;1.00;;;;;;4976560;28;20205;-75
2023/09/18 06:56:10;;;;;;;10.93;4.30;;;21.30;1.00;;;;;;4988694;28;20700;-76
2023/09/18 06:58:36;;;;;;;9.60;4.07;;;21.40;1.00;;;;;;4994376;28;20183;-78
2023/09/18 07:01:03;;;;;;;12.33;5.00;;;21.40;1.00;;;;;;4988895;28;20186;-77
2023/09/18 07:03:29;;;;;;;9.70;4.70;;;;;;;;;;4987159;28;20181;-79
2023/09/18 07:05:54;;;;;;;9.93;4.60;;;21.70;1.00;;;;;;4987099;28;20457;-77
2023/09/18 07:08:22;;;;;;;10.90;4.77;;;21.70;1.00;;;;;;4985482;28;20185;-77
2023/09/18 07:10:50;;;;;;;11.93;4.67;;;21.80;1.00;;;;;;4989519;28;20183;-74
2023/09/18 07:13:15;;;;;;;15.60;5.00;;;21.80;1.00;;;;;;4991509;28;20516;-75
2023/09/18 07:15:41;;;;;;;14.07;5.17;;;21.80;1.00;;;;;;4988256;28;20913;-75
2023/09/18 07:18:07;;;;;;;12.30;5.23;;;21.70;1.00;;;;;;4987653;28;20249;-76
2023/09/18 07:20:32;;;;;;;18.43;5.17;;;21.80;1.00;;;;;;4982997;28;20187;-75
2023/09/18 07:22:58;;;;;;;13.07;4.97;;;21.90;1.00;;;;;;4985343;28;20586;-72
2023/09/18 07:25:23;;;;;;;8.70;4.53;;;22.00;1.00;;;;;;4987319;28;20616;-75
2023/09/18 07:27:49;;;;;;;12.37;4.43;;;22.00;1.00;;;;;;4987721;28;20186;-71
2023/09/18 07:30:16;;;;;;;11.70;4.77;;;22.00;1.00;;;;;;4988726;28;20297;-71
2023/09/18 07:32:42;;;;;;;14.90;4.60;;;22.00;1.00;;;;;;4988941;28;20514;-71
2023/09/18 07:35:09;;;;;;;9.03;4.80;;;21.90;1.00;;;;;;4971765;28;20757;-72
2023/09/18 07:37:35;;;;;;;6.50;3.30;;;21.90;1.00;;;;;;4989736;28;21026;-70
2023/09/18 07:40:02;;;;;;;10.00;3.80;;;21.80;1.00;;;;;;4988738;28;20421;-70
2023/09/18 07:42:28;;;;;;;8.90;4.60;;;21.80;1.00;;;;;;4986354;28;20549;-70
2023/09/18 07:44:54;;;;;;;11.20;3.20;;;21.70;1.00;;;;;;4985850;28;20892;-69
2023/09/18 07:47:20;;;;;;;11.10;3.00;;;21.70;1.00;;;;;;4986812;28;20697;-70
2023/09/18 07:49:45;;;;;;;8.33;2.90;;;21.70;1.00;;;;;;4985182;28;20529;-70
2023/09/18 07:52:11;;;;;;;6.33;2.70;;;21.70;1.00;;;;;;4986772;28;20240;-70
2023/09/18 07:54:36;;;;;;;7.50;3.13;;;21.80;1.00;;;;;;4989873;28;20190;-70
2023/09/18 07:57:02;;;;;;;8.47;3.30;;;21.80;1.00;;;;;;4989576;28;20186;-70
2023/09/18 07:59:28;;;;;;;10.07;2.50;;;21.80;1.00;;;;;;4989196;28;20197;-70
2023/09/18 08:01:54;;;;;;;8.97;2.47;;;21.90;1.00;;;;;;4986303;28;20217;-70
2023/09/18 08:04:20;;;;;;;8.10;2.40;;;22.00;1.00;;;;;;4985623;28;20265;-70
2023/09/18 08:06:45;;;;;;;8.47;2.60;;;21.80;1.00;;;;;;4984365;28;20540;-71
2023/09/18 08:09:14;;;;;;;13.50;2.70;;;21.90;1.00;;;;;;4986574;28;20221;-75
2023/09/18 08:11:41;;;;;;;7.47;2.33;;;22.10;1.00;;;;;;4986001;28;20194;-73
2023/09/18 08:14:07;;;;;;;5.10;2.20;;;22.10;1.00;;;;;;4985598;28;20434;-73
2023/09/18 08:16:33;;;;;;;6.20;2.40;;;22.20;1.00;;;;;;4965094;28;20486;-73
2023/09/18 08:19:00;;;;;;;6.10;2.27;;;22.20;1.00;;;;;;4984748;28;20186;-72
2023/09/18 08:21:28;;;;;;;6.10;2.43;;;22.10;1.00;;;;;;4988459;28;20202;-71
2023/09/18 08:23:54;;;;;;;5.07;2.10;;;22.10;1.00;;;;;;4987105;28;20441;-72
2023/09/18 08:26:20;;;;;;;4.40;2.07;;;22.10;1.00;;;;;;4984679;28;20466;-72
2023/09/18 08:28:46;;;;;;;5.73;2.03;;;22.20;1.00;;;;;;4983049;28;20223;-74
2023/09/18 08:31:12;;;;;;;10.77;2.33;;;22.20;1.00;;;;;;4986519;28;20190;-72
2023/09/18 08:33:37;;;;;;;7.20;2.17;;;22.20;1.00;;;;;;4989086;28;20249;-72
2023/09/18 08:36:03;;;;;;;7.07;2.37;;;22.20;1.00;;;;;;4991730;28;20210;-71
2023/09/18 08:38:28;;;;;;;4.67;1.80;;;22.20;1.00;;;;;;4993274;28;20213;-71
2023/09/18 08:40:55;;;;;;;4.83;2.00;;;22.20;1.00;;;;;;4992467;28;20278;-72
2023/09/18 08:43:22;;;;;;;6.67;2.20;;;22.10;1.00;;;;;;4978018;28;20189;-72
2023/09/18 08:45:52;;;;;;;7.83;2.03;;;22.00;1.00;;;;;;4978901;28;20887;-72
2023/09/18 08:48:19;;;;;;;7.17;1.80;;;21.90;1.00;;;;;;4993041;28;20417;-73
2023/09/18 08:50:46;;;;;;;4.90;1.83;;;21.80;1.00;;;;;;4992687;28;20443;-75
2023/09/18 08:53:12;;;;;;;6.13;1.93;;;21.80;1.00;;;;;;4986874;28;20449;-72
2023/09/18 08:55:38;;;;;;;8.67;1.90;;;21.70;1.00;;;;;;4985126;28;20883;-72
2023/09/18 08:58:04;;;;;;;6.50;1.93;;;21.70;1.00;;;;;;4992452;28;20194;-74
2023/09/18 09:00:29;;;;;;;8.17;2.10;;;21.70;1.00;;;;;;4992067;28;20244;-73
2023/09/18 09:02:55;;;;;;;6.07;2.67;;;21.90;1.00;;;;;;4987624;28;20299;-72
2023/09/18 09:05:22;;;;;;;4.90;2.13;;;21.90;1.00;;;;;;4990547;28;20656;-73
2023/09/18 09:07:49;;;;;;;7.10;2.57;;;21.90;1.00;;;;;;4991963;28;20179;-73
2023/09/18 09:10:14;;;;;;;4.80;2.30;;;21.90;1.00;;;;;;4991821;28;20429;-73
2023/09/18 09:12:58;;;;;;;5.20;2.00;;;22.00;1.00;;;;;;4991953;28;20951;-73
2023/09/18 09:15:26;;;;;;;5.17;1.97;;;22.00;1.00;;;;;;4991793;28;20206;-73
2023/09/18 09:18:06;;;;;;;7.03;2.37;;;22.10;1.00;;;;;;4991911;28;20445;-73
2023/09/18 09:20:32;;;;;;;3.80;1.97;;;22.30;1.00;;;;;;4985551;28;20441;-75
2023/09/18 09:23:01;;;;;;;5.13;2.17;;;22.40;1.00;;;;;;4984109;28;20474;-71
2023/09/18 09:25:32;;;;;;;5.27;2.40;;;22.50;1.00;;;;;;4986303;28;20462;-73
2023/09/18 09:27:59;;;;;;;7.90;2.00;;;22.40;1.00;;;;;;4991449;28;20444;-70
2023/09/18 09:30:27;;;;;;;5.17;2.03;;;22.40;1.00;;;;;;4992136;28;20971;-72
2023/09/18 09:32:54;;;;;;;6.80;2.37;;;22.40;1.00;;;;;;4991045;28;20557;-71
2023/09/18 09:35:27;;;;;;;4.43;1.97;;;22.40;1.00;;;;;;4990176;28;20963;-71
2023/09/18 09:37:55;;;;;;;6.70;2.10;;;22.40;1.00;;;;;;4980084;28;20453;-71
2023/09/18 09:40:22;;;;;;;5.30;1.80;;;22.40;1.00;;;;;;4985730;28;20532;-71
2023/09/18 09:42:51;;;;;;;7.00;2.37;;;22.30;1.00;;;;;;4988355;28;20465;-74
2023/09/18 09:45:17;;;;;;;5.43;1.80;;;22.20;1.00;;;;;;4967317;28;20864;-70
2023/09/18 09:47:43;;;;;;;6.70;2.30;;;22.20;1.00;;;;;;4995063;28;20432;-72
2023/09/18 09:50:10;;;;;;;4.33;2.07;;;22.20;1.00;;;;;;4992958;28;20197;-73
2023/09/18 09:52:37;;;;;;;10.50;2.57;;;22.20;1.00;;;;;;4991419;28;20422;-72
2023/09/18 09:55:05;;;;;;;5.37;2.20;;;22.40;1.00;;;;;;4990345;28;20483;-72
2023/09/18 09:57:31;;;;;;;4.73;2.30;;;22.40;1.00;;;;;;4990245;28;20940;-73
2023/09/18 10:00:22;;;;;;;4.53;2.13;;;22.40;1.00;;;;;;4997335;28;20428;-73
2023/09/18 10:02:49;;;;;;;8.50;2.27;;;22.50;1.00;;;;;;4986526;28;20469;-72
2023/09/18 10:05:18;;;;;;;5.80;1.90;;;22.70;1.00;;;;;;4990872;28;20452;-72
2023/09/18 10:07:43;;;;;;;6.60;2.00;;;22.70;1.00;;;;;;4990756;28;20433;-71
2023/09/18 10:10:10;;;;;;;8.60;2.20;;;22.80;1.00;;;;;;4990832;28;20413;-71
2023/09/18 10:12:36;;;;;;;5.67;2.30;;;22.90;1.00;;;;;;4985902;28;20183;-71
2023/09/18 10:15:03;;;;;;;4.90;1.73;;;22.70;1.00;;;;;;4989072;28;20472;-71
2023/09/18 10:17:30;;;;;;;6.50;2.60;;;22.80;1.00;;;;;;4989768;28;20464;-73
2023/09/18 10:20:09;;;;;;;5.80;2.10;;;22.60;1.00;;;;;;4989430;28;20477;-72
2023/09/18 10:22:39;;;;;;;4.30;2.13;;;22.70;1.00;;;;;;4983671;28;20516;-72
2023/09/18 10:25:18;;;;;;;5.10;2.00;;;23.10;1.00;;;;;;4971877;28;21076;-73
2023/09/18 10:27:46;;;;;;;10.83;2.33;;;23.10;1.00;;;;;;4990913;28;20448;-72
2023/09/18 10:30:13;;;;;;;8.23;2.30;;;24.50;1.00;;;;;;4990675;28;20441;-73
2023/09/18 10:32:41;;;;;;;5.43;2.00;;;23.40;1.00;;;;;;4979674;28;20434;-73
2023/09/18 10:35:12;;;;;;;7.33;2.00;;;23.70;1.00;;;;;;4990336;28;20892;-73
2023/09/18 10:37:38;;;;;;;5.23;1.87;;;23.70;1.00;;;;;;4993817;28;20911;-73
2023/09/18 10:40:07;;;;;;;5.97;2.13;;;23.80;1.00;;;;;;4991077;28;20432;-71
2023/09/18 10:42:35;;;;;;;5.43;2.13;;;23.80;1.00;;;;;;4991375;28;20457;-73
2023/09/18 10:45:04;;;;;;;4.50;1.97;;;24.00;1.00;;;;;;4990552;28;20446;-74
2023/09/18 10:47:31;;;;;;;6.67;2.30;;;24.10;1.00;;;;;;4982544;28;20422;-74
2023/09/18 10:49:57;;;;;;;8.97;2.20;;;24.10;1.00;;;;;;4988296;28;20881;-71
2023/09/18 10:52:22;;;;;;;7.03;2.00;;;24.40;1.00;;;;;;4989165;28;20445;-73
2023/09/18 10:54:48;;;;;;;7.53;2.40;;;24.70;1.00;;;;;;4985495;28;20190;-73
2023/09/18 10:57:14;;;;;;;5.07;2.37;;;24.70;1.00;;;;;;4987394;28;20198;-73
2023/09/18 10:59:46;;;;;;;5.63;2.20;;;24.80;1.00;;;;;;4988216;28;20185;-73
2023/09/18 11:02:16;;;;;;;7.90;1.80;;;24.90;1.00;;;;;;4988497;28;20205;-73
2023/09/18 11:04:44;;;;;;;11.10;2.27;;;25.50;1.00;;;;;;4988088;28;20461;-72
2023/09/18 11:07:22;;;;;;;5.90;1.87;;;25.50;1.00;;;;;;4988553;28;20426;-74
2023/09/18 11:09:48;;;;;;;4.00;1.70;;;25.80;1.00;;;;;;4988069;28;20931;-73
2023/09/18 11:12:18;;;;;;;7.37;1.97;;;26.00;1.00;;;;;;4984089;28;20437;-72
2023/09/18 11:14:49;;;;;;;5.40;1.80;;;26.10;1.00;;;;;;4985134;28;20189;-73
2023/09/18 11:17:37;;;;;;;4.93;1.93;;;26.10;1.00;;;;;;4985966;28;20436;-72
2023/09/18 11:20:09;;;;;;;6.33;2.00;;;25.80;1.00;;;;;;4988782;28;20469;-72
2023/09/18 11:22:36;;;;;;;4.10;1.77;;;25.50;1.00;;;;;;4982436;28;20530;-72
2023/09/18 11:25:30;;;;;;;5.50;1.90;;;25.10;1.00;;;;;;4984873;28;20488;-72
2023/09/18 11:27:57;;;;;;;4.30;1.87;;;25.10;1.00;;;;;;4984881;28;20469;-75
2023/09/18 11:30:23;;;;;;;4.73;1.80;;;25.30;1.00;;;;;;4986601;28;20860;-75
2023/09/18 11:32:49;;;;;;;6.67;2.30;;;25.30;1.00;;;;;;4987429;28;20436;-72
2023/09/18 11:35:17;;;;;;;5.03;1.77;;;24.90;1.00;;;;;;4984810;28;20816;-72
2023/09/18 11:37:43;;;;;;;9.87;1.90;;;24.90;1.00;;;;;;4985902;28;20179;-75
2023/09/18 11:40:33;;;;;;;9.40;1.90;;;25.00;1.00;;;;;;4989369;28;20410;-72
2023/09/18 11:43:25;;;;;;;5.43;1.63;;;25.20;1.00;;;;;;4985293;28;20756;-72
2023/09/18 11:45:55;;;;;;;5.17;1.87;;;25.20;1.00;;;;;;4985536;28;20500;-71
2023/09/18 11:48:27;;;;;;;4.85;1.65;;;25.30;1.00;;;;;;4988264;28;20415;-72
2023/09/18 11:50:54;;;;;;;5.17;1.90;;;25.60;1.00;;;;;;4989817;28;20178;-72
2023/09/18 11:53:21;;;;;;;5.17;1.87;;;25.70;1.00;;;;;;4989775;28;20504;-72
2023/09/18 11:55:47;;;;;;;4.17;1.70;;;26.40;1.00;;;;;;4989182;28;20532;-72
2023/09/18 11:58:13;;;;;;;4.13;1.67;;;26.50;1.00;;;;;;4989566;28;20406;-72
2023/09/18 12:00:48;;;;;;;5.90;1.77;;;26.90;1.00;;;;;;4988052;28;20437;-72
2023/09/18 12:03:25;;;;;;;5.20;1.80;;;27.60;1.00;;;;;;4989071;28;20464;-72
2023/09/18 12:05:59;;;;;;;6.37;2.00;;;28.50;1.00;;;;;;4989457;28;20612;-72
2023/09/18 12:08:26;;;;;;;4.40;1.80;;;28.60;1.00;;;;;;4993192;28;20273;-72
2023/09/18 12:10:53;;;;;;;6.73;1.70;;;28.00;1.00;;;;;;4992719;28;20166;-71
2023/09/18 12:13:18;;;;;;;5.73;2.00;;;27.30;1.00;;;;;;4992920;28;20186;-72
2023/09/18 12:15:44;;;;;;;5.17;1.60;;;27.00;1.00;;;;;;4992305;28;20282;-72
2023/09/18 12:18:12;;;;;;;5.17;1.60;;;26.90;1.00;;;;;;4993896;28;20174;-72
2023/09/18 12:20:38;;;;;;;3.97;1.77;;;27.10;1.00;;;;;;4991072;28;20526;-72
2023/09/18 12:23:04;;;;;;;6.53;2.00;;;27.40;1.00;;;;;;4993200;28;20297;-72
2023/09/18 12:25:29;;;;;;;4.73;1.60;;;27.30;1.00;;;;;;4992884;28;20737;-72
2023/09/18 12:27:55;;;;;;;3.53;1.70;;;26.90;1.00;;;;;;4993290;28;20171;-74
2023/09/18 12:30:22;;;;;;;4.13;1.80;;;26.80;1.00;;;;;;4991253;28;20249;-73
2023/09/18 12:32:49;;;;;;;7.17;1.90;;;26.80;1.00;;;;;;4992710;28;20182;-73
2023/09/18 12:35:15;;;;;;;3.13;1.60;;;27.20;1.00;;;;;;4992783;28;20687;-70
2023/09/18 12:37:41;;;;;;;7.10;1.57;;;27.30;1.00;;;;;;4993318;28;20182;-73
2023/09/18 12:40:20;;;;;;;6.03;1.53;;;26.90;1.00;;;;;;4989590;28;20182;-72
2023/09/18 12:42:46;;;;;;;3.63;1.70;;;26.30;1.00;;;;;;4992810;28;20191;-74
2023/09/18 12:45:12;;;;;;;4.47;1.60;;;25.90;1.00;;;;;;4992490;28;20190;-71
2023/09/18 12:47:39;;;;;;;3.57;1.70;;;25.90;1.00;;;;;;4992022;28;20492;-75
2023/09/18 12:50:06;;;;;;;3.93;1.67;;;25.80;1.00;;;;;;4992938;28;20177;-73
2023/09/18 12:52:33;;;;;;;4.77;1.63;;;25.70;1.00;;;;;;4975200;28;20516;-73